createdAt,value
2018-06-05T00:02:23.315Z,18.90
2018-06-05T00:04:54.975Z,18.90
2018-06-05T00:07:26.483Z,18.90
2018-06-05T00:09:59.401Z,18.90
2018-06-05T00:12:30.982Z,18.80
2018-06-05T00:15:02.622Z,18.70
2018-06-05T00:17:34.173Z,18.70
2018-06-05T00:20:05.866Z,18.60
2018-06-05T00:22:37.748Z,18.60
2018-06-05T00:25:09.354Z,18.60
2018-06-05T00:27:41.004Z,18.60
2018-06-05T00:30:12.756Z,18.70
2018-06-05T00:32:44.554Z,18.70
2018-06-05T00:35:16.335Z,18.70
2018-06-05T00:37:47.965Z,18.70
2018-06-05T00:40:19.596Z,18.70
2018-06-05T00:42:51.269Z,18.60
2018-06-05T00:45:22.822Z,18.60
2018-06-05T00:47:54.594Z,18.50
2018-06-05T00:50:26.376Z,18.50
2018-06-05T00:52:57.978Z,18.40
2018-06-05T00:55:29.637Z,18.40
2018-06-05T00:58:01.189Z,18.40
2018-06-05T01:00:32.850Z,18.30
2018-06-05T01:03:05.449Z,18.30
2018-06-05T01:05:37.240Z,18.30
2018-06-05T01:08:08.873Z,18.20
2018-06-05T01:10:40.600Z,18.20
2018-06-05T01:13:12.194Z,18.20
2018-06-05T01:15:43.969Z,18.10
2018-06-05T01:18:15.609Z,18.10
2018-06-05T01:20:47.328Z,18.10
2018-06-05T01:25:50.756Z,17.90
2018-06-05T01:28:22.454Z,17.90
2018-06-05T01:30:54.081Z,17.90
2018-06-05T01:33:25.772Z,17.80
2018-06-05T01:35:57.401Z,17.80
2018-06-05T01:38:28.981Z,17.80
2018-06-05T01:41:00.612Z,17.80
2018-06-05T01:43:32.353Z,17.80
2018-06-05T01:46:03.921Z,17.80
2018-06-05T01:48:35.642Z,17.80
2018-06-05T01:51:07.214Z,17.80
2018-06-05T01:53:38.833Z,17.80
2018-06-05T01:56:10.344Z,17.80
2018-06-05T01:58:42.088Z,17.80
2018-06-05T02:01:13.670Z,17.80
2018-06-05T02:03:45.375Z,17.80
2018-06-05T02:06:16.957Z,17.90
2018-06-05T02:08:48.653Z,17.90
2018-06-05T02:11:20.352Z,17.90
2018-06-05T02:13:51.965Z,18.00
2018-06-05T02:16:23.569Z,18.00
2018-06-05T02:18:55.322Z,18.00
2018-06-05T02:21:26.889Z,18.00
2018-06-05T02:23:58.507Z,17.90
2018-06-05T02:26:30.085Z,17.80
2018-06-05T02:29:01.607Z,17.80
2018-06-05T02:31:33.213Z,17.70
2018-06-05T02:34:05.054Z,17.60
2018-06-05T02:36:37.034Z,17.50
2018-06-05T02:39:09.365Z,17.50
2018-06-05T02:41:40.941Z,17.60
2018-06-05T02:44:12.574Z,17.70
2018-06-05T02:46:44.320Z,17.80
2018-06-05T02:49:15.981Z,17.80
2018-06-05T02:51:47.685Z,17.90
2018-06-05T02:54:19.346Z,17.90
2018-06-05T02:56:51.099Z,17.90
2018-06-05T02:59:22.842Z,18.00
2018-06-05T03:01:54.554Z,17.90
2018-06-05T03:04:26.149Z,17.90
2018-06-05T03:06:57.825Z,17.80
2018-06-05T03:09:29.416Z,17.70
2018-06-05T03:12:01.136Z,17.60
2018-06-05T03:14:32.828Z,17.50
2018-06-05T03:17:04.554Z,17.50
2018-06-05T03:19:36.258Z,17.50
2018-06-05T03:22:07.963Z,17.50
2018-06-05T03:24:39.579Z,17.50
2018-06-05T03:27:11.181Z,17.50
2018-06-05T03:29:42.792Z,17.50
2018-06-05T03:32:14.583Z,17.60
2018-06-05T03:34:46.136Z,17.50
2018-06-05T03:37:17.997Z,17.60
2018-06-05T03:39:49.857Z,17.60
2018-06-05T03:42:21.448Z,17.60
2018-06-05T03:44:53.130Z,17.60
2018-06-05T03:47:24.752Z,17.60
2018-06-05T03:49:56.497Z,17.60
2018-06-05T03:52:28.077Z,17.60
2018-06-05T03:54:59.766Z,17.60
2018-06-05T03:57:31.354Z,17.70
2018-06-05T04:00:03.136Z,17.70
2018-06-05T04:02:34.974Z,17.70
2018-06-05T04:05:06.745Z,17.80
2018-06-05T04:07:38.290Z,17.80
2018-06-05T04:10:09.943Z,17.90
2018-06-05T04:12:41.610Z,17.90
2018-06-05T04:15:13.184Z,17.90
2018-06-05T04:17:44.923Z,18.00
2018-06-05T04:20:16.500Z,17.90
2018-06-05T04:22:48.232Z,17.90
2018-06-05T04:25:19.820Z,17.90
2018-06-05T04:27:51.601Z,17.90
2018-06-05T04:30:23.396Z,17.90
2018-06-05T04:32:55.061Z,17.90
2018-06-05T04:35:26.773Z,17.90
2018-06-05T04:37:58.410Z,17.90
2018-06-05T04:40:30.227Z,18.00
2018-06-05T04:43:01.788Z,18.00
2018-06-05T04:45:33.445Z,18.00
2018-06-05T04:48:05.157Z,18.10
2018-06-05T04:50:36.839Z,18.10
2018-06-05T04:53:08.659Z,18.20
2018-06-05T04:55:40.286Z,18.30
2018-06-05T04:58:11.938Z,18.30
2018-06-05T05:00:43.593Z,18.40
2018-06-05T05:03:15.254Z,18.60
2018-06-05T05:08:17.949Z,18.80
2018-06-05T05:10:49.497Z,18.90
2018-06-05T05:13:21.160Z,18.90
2018-06-05T05:15:52.708Z,19.10
2018-06-05T05:18:24.357Z,19.10
2018-06-05T05:20:55.973Z,19.20
2018-06-05T05:23:27.679Z,19.30
2018-06-05T05:25:59.140Z,19.40
2018-06-05T05:28:30.841Z,19.40
2018-06-05T05:31:02.476Z,19.50
2018-06-05T05:33:34.224Z,19.50
2018-06-05T05:36:06.155Z,19.60
2018-06-05T05:38:37.749Z,19.60
2018-06-05T05:41:09.352Z,19.70
2018-06-05T05:43:41.040Z,19.80
2018-06-05T05:46:12.630Z,19.90
2018-06-05T05:48:44.340Z,20.00
2018-06-05T05:51:15.892Z,20.00
2018-06-05T05:53:47.479Z,20.10
2018-06-05T05:56:19.315Z,20.20
2018-06-05T05:58:51.027Z,20.30
2018-06-05T06:01:22.651Z,20.40
2018-06-05T06:03:54.289Z,20.40
2018-06-05T06:06:25.838Z,20.60
2018-06-05T06:08:57.550Z,20.60
2018-06-05T06:11:29.185Z,20.70
2018-06-05T06:14:00.928Z,20.80
2018-06-05T06:16:32.569Z,20.90
2018-06-05T06:19:04.240Z,21.00
2018-06-05T06:21:35.880Z,21.10
2018-06-05T06:24:07.536Z,21.20
2018-06-05T06:26:39.083Z,21.30
2018-06-05T06:29:10.760Z,21.30
2018-06-05T06:31:42.455Z,21.40
2018-06-05T06:34:14.091Z,21.50
2018-06-05T06:36:45.729Z,21.60
2018-06-05T06:39:17.485Z,21.70
2018-06-05T06:41:49.022Z,21.80
2018-06-05T06:44:20.601Z,21.90
2018-06-05T06:46:52.246Z,22.00
2018-06-05T06:49:23.941Z,22.20
2018-06-05T06:51:55.513Z,22.30
2018-06-05T06:54:27.269Z,22.40
2018-06-05T06:56:58.822Z,22.50
2018-06-05T06:59:30.426Z,22.60
2018-06-05T07:02:02.070Z,22.70
2018-06-05T07:04:33.750Z,22.80
2018-06-05T07:07:05.495Z,22.90
2018-06-05T07:09:37.239Z,23.00
2018-06-05T07:12:08.836Z,23.10
2018-06-05T07:14:40.457Z,23.20
2018-06-05T07:17:12.123Z,23.20
2018-06-05T07:19:43.670Z,23.30
2018-06-05T07:22:15.249Z,23.30
2018-06-05T07:24:47.023Z,23.50
2018-06-05T07:27:18.664Z,23.60
2018-06-05T07:29:50.494Z,23.60
2018-06-05T07:32:22.084Z,23.70
2018-06-05T07:34:53.820Z,23.80
2018-06-05T07:37:25.502Z,23.90
2018-06-05T07:39:57.123Z,24.00
2018-06-05T07:42:28.827Z,24.10
2018-06-05T07:45:00.551Z,24.20
2018-06-05T07:50:03.380Z,24.40
2018-06-05T07:52:35.001Z,24.50
2018-06-05T07:55:06.659Z,24.60
2018-06-05T07:57:38.366Z,24.60
2018-06-05T08:00:10.081Z,24.70
2018-06-05T08:02:41.725Z,24.60
2018-06-05T08:07:44.433Z,24.70
2018-06-05T08:10:16.120Z,24.90
2018-06-05T08:12:47.845Z,25.00
2018-06-05T08:15:19.417Z,25.30
2018-06-05T08:17:51.056Z,25.40
2018-06-05T08:20:22.709Z,25.50
2018-06-05T08:22:56.656Z,25.50
2018-06-05T08:25:28.385Z,25.60
2018-06-05T08:28:00.029Z,25.70
2018-06-05T08:30:31.782Z,25.90
2018-06-05T08:33:03.456Z,26.00
2018-06-05T08:35:35.113Z,26.00
2018-06-05T08:38:06.768Z,26.10
2018-06-05T08:40:38.593Z,26.10
2018-06-05T08:43:10.484Z,26.20
2018-06-05T08:45:42.129Z,26.20
2018-06-05T08:48:13.713Z,26.30
2018-06-05T08:50:45.449Z,26.50
2018-06-05T08:53:17.042Z,26.60
2018-06-05T08:55:48.746Z,26.80
2018-06-05T08:58:20.429Z,26.90
2018-06-05T09:00:51.975Z,27.00
2018-06-05T09:03:23.549Z,27.00
2018-06-05T09:05:55.185Z,27.10
2018-06-05T09:08:26.846Z,27.10
2018-06-05T09:10:58.480Z,27.10
2018-06-05T09:13:30.248Z,27.00
2018-06-05T09:16:02.109Z,27.10
2018-06-05T09:18:33.658Z,27.00
2018-06-05T09:21:05.389Z,27.10
2018-06-05T09:23:37.017Z,27.10
2018-06-05T09:26:08.677Z,27.10
2018-06-05T09:28:40.299Z,27.20
2018-06-05T09:31:11.990Z,27.30
2018-06-05T09:33:43.645Z,27.40
2018-06-05T09:36:15.277Z,27.60
2018-06-05T09:38:46.933Z,27.80
2018-06-05T09:41:18.790Z,28.00
2018-06-05T09:43:50.508Z,27.90
2018-06-05T09:46:22.309Z,27.50
2018-06-05T09:48:53.950Z,27.10
2018-06-05T09:51:25.669Z,26.80
2018-06-05T09:53:57.299Z,26.60
2018-06-05T09:56:28.956Z,26.50
2018-06-05T09:59:00.611Z,26.40
2018-06-05T10:01:32.286Z,26.40
2018-06-05T10:04:03.897Z,26.60
2018-06-05T10:06:35.609Z,26.90
2018-06-05T10:09:08.921Z,27.20
2018-06-05T10:11:40.627Z,27.40
2018-06-05T10:14:12.267Z,27.50
2018-06-05T10:16:44.147Z,27.40
2018-06-05T10:19:15.788Z,27.50
2018-06-05T10:21:47.445Z,27.70
2018-06-05T10:24:19.021Z,27.90
2018-06-05T10:26:50.853Z,28.00
2018-06-05T10:29:22.509Z,28.30
2018-06-05T10:31:54.219Z,28.50
2018-06-05T10:34:25.778Z,28.70
2018-06-05T10:36:57.576Z,28.90
2018-06-05T10:39:29.137Z,29.00
2018-06-05T10:42:00.857Z,29.00
2018-06-05T10:44:32.481Z,28.90
2018-06-05T10:47:04.258Z,28.90
2018-06-05T10:49:35.892Z,28.90
2018-06-05T10:52:07.828Z,28.90
2018-06-05T10:54:39.488Z,28.90
2018-06-05T10:57:11.298Z,29.00
2018-06-05T10:59:43.006Z,29.10
2018-06-05T11:02:14.548Z,29.20
2018-06-05T11:04:46.373Z,29.30
2018-06-05T11:07:17.969Z,29.30
2018-06-05T11:09:49.630Z,29.30
2018-06-05T11:12:21.280Z,29.50
2018-06-05T11:14:52.875Z,29.50
2018-06-05T11:17:24.597Z,29.70
2018-06-05T11:19:56.181Z,29.70
2018-06-05T11:22:27.912Z,29.70
2018-06-05T11:24:59.505Z,29.90
2018-06-05T11:27:31.281Z,30.00
2018-06-05T11:30:02.983Z,30.00
2018-06-05T11:32:34.732Z,29.90
2018-06-05T11:35:06.502Z,30.00
2018-06-05T11:37:38.170Z,29.70
2018-06-05T11:40:09.805Z,29.50
2018-06-05T11:45:12.543Z,29.30
2018-06-05T11:47:44.324Z,29.50
2018-06-05T11:50:15.972Z,29.60
2018-06-05T11:52:47.779Z,29.60
2018-06-05T11:55:19.372Z,29.50
2018-06-05T11:57:51.019Z,29.60
2018-06-05T12:00:22.984Z,29.80
2018-06-05T12:02:54.783Z,29.90
2018-06-05T12:05:26.408Z,29.70
2018-06-05T12:07:58.144Z,29.60
2018-06-05T12:10:29.816Z,29.70
2018-06-05T12:13:01.451Z,29.70
2018-06-05T12:15:33.114Z,29.80
2018-06-05T12:18:04.752Z,30.00
2018-06-05T12:20:36.344Z,30.20
2018-06-05T12:23:08.082Z,30.40
2018-06-05T12:25:39.697Z,30.50
2018-06-05T12:28:11.461Z,30.30
2018-06-05T12:30:43.190Z,30.30
2018-06-05T12:33:15.023Z,30.40
2018-06-05T12:35:46.589Z,30.30
2018-06-05T12:38:18.338Z,30.30
2018-06-05T12:40:49.986Z,30.40
2018-06-05T12:43:22.471Z,30.50
2018-06-05T12:45:54.220Z,30.60
2018-06-05T12:48:25.964Z,30.60
2018-06-05T12:50:57.533Z,30.60
2018-06-05T12:53:29.193Z,30.60
2018-06-05T12:56:00.769Z,30.50
2018-06-05T12:58:32.320Z,30.50
2018-06-05T13:01:04.050Z,30.50
2018-06-05T13:03:35.644Z,30.60
2018-06-05T13:06:07.464Z,30.60
2018-06-05T13:11:10.170Z,30.30
2018-06-05T13:13:41.824Z,30.20
2018-06-05T13:16:13.483Z,30.10
2018-06-05T13:18:45.039Z,30.20
2018-06-05T13:21:16.795Z,30.30
2018-06-05T13:23:48.366Z,30.30
2018-06-05T13:26:20.175Z,30.30
2018-06-05T13:28:51.808Z,30.20
2018-06-05T13:31:23.479Z,29.90
2018-06-05T13:33:55.106Z,29.90
2018-06-05T13:36:26.725Z,29.90
2018-06-05T13:38:58.553Z,30.00
2018-06-05T13:41:30.132Z,30.00
2018-06-05T13:44:01.765Z,30.20
2018-06-05T13:46:33.468Z,30.10
2018-06-05T13:49:05.205Z,30.10
2018-06-05T13:51:36.763Z,30.10
2018-06-05T13:54:08.426Z,30.10
2018-06-05T13:56:40.174Z,30.00
2018-06-05T13:59:11.843Z,30.00
2018-06-05T14:01:43.393Z,30.10
2018-06-05T14:06:46.086Z,29.90
2018-06-05T14:09:18.213Z,29.90
2018-06-05T14:11:49.844Z,29.80
2018-06-05T14:14:21.598Z,29.70
2018-06-05T14:16:53.341Z,29.80
2018-06-05T14:19:25.026Z,29.80
2018-06-05T14:21:56.703Z,29.90
2018-06-05T14:24:28.337Z,29.90
2018-06-05T14:26:59.921Z,29.90
2018-06-05T14:29:31.620Z,29.90
2018-06-05T14:32:03.125Z,29.70
2018-06-05T14:34:34.757Z,29.60
2018-06-05T14:37:06.489Z,29.60
2018-06-05T14:42:09.229Z,29.70
2018-06-05T14:44:40.994Z,29.60
2018-06-05T14:47:12.654Z,29.70
2018-06-05T14:49:44.345Z,29.60
2018-06-05T14:52:15.964Z,29.60
2018-06-05T14:54:47.761Z,29.60
2018-06-05T14:57:19.389Z,29.60
2018-06-05T14:59:50.977Z,29.50
2018-06-05T15:02:22.527Z,29.50
2018-06-05T15:04:54.085Z,29.40
2018-06-05T15:07:25.598Z,29.40
2018-06-05T15:09:57.222Z,29.30
2018-06-05T15:12:28.944Z,29.40
2018-06-05T15:15:00.533Z,29.30
2018-06-05T15:17:32.229Z,29.30
2018-06-05T15:20:03.833Z,29.20
2018-06-05T15:22:35.491Z,29.20
2018-06-05T15:25:07.071Z,29.20
2018-06-05T15:27:38.782Z,29.10
2018-06-05T15:32:41.380Z,29.10
2018-06-05T15:37:44.149Z,29.10
2018-06-05T15:40:15.765Z,29.10
2018-06-05T15:42:47.489Z,29.00
2018-06-05T15:45:19.193Z,28.90
2018-06-05T15:47:50.771Z,28.80
2018-06-05T15:50:22.509Z,28.80
2018-06-05T15:52:54.233Z,28.70
2018-06-05T15:55:25.813Z,28.60
2018-06-05T15:57:57.491Z,28.60
2018-06-05T16:00:29.129Z,28.50
2018-06-05T16:03:00.879Z,28.30
2018-06-05T16:05:32.478Z,28.20
2018-06-05T16:08:04.125Z,28.00
2018-06-05T16:10:35.748Z,27.90
2018-06-05T16:13:07.443Z,27.80
2018-06-05T16:15:39.230Z,27.70
2018-06-05T16:20:41.833Z,27.60
2018-06-05T16:23:13.346Z,27.60
2018-06-05T16:25:44.949Z,27.50
2018-06-05T16:28:16.458Z,27.40
2018-06-05T16:30:48.165Z,27.40
2018-06-05T16:33:19.718Z,27.30
2018-06-05T16:35:51.367Z,27.30
2018-06-05T16:38:22.905Z,27.20
2018-06-05T16:40:54.478Z,27.10
2018-06-05T16:43:25.894Z,27.00
2018-06-05T16:45:57.481Z,26.90
2018-06-05T16:48:29.101Z,26.80
2018-06-05T16:51:00.707Z,26.70
2018-06-05T16:53:32.412Z,26.60
2018-06-05T16:56:04.196Z,26.50
2018-06-05T16:58:35.858Z,26.40
2018-06-05T17:01:07.445Z,26.30
2018-06-05T17:03:39.033Z,26.30
2018-06-05T17:06:10.745Z,26.20
2018-06-05T17:08:42.401Z,26.10
2018-06-05T17:11:14.153Z,26.10
2018-06-05T17:13:45.789Z,26.00
2018-06-05T17:16:17.529Z,25.90
2018-06-05T17:18:49.099Z,25.90
2018-06-05T17:21:20.673Z,25.80
2018-06-05T17:23:52.281Z,25.80
2018-06-05T17:26:24.074Z,25.70
2018-06-05T17:28:55.812Z,25.70
2018-06-05T17:31:27.400Z,25.60
2018-06-05T17:36:29.824Z,25.50
2018-06-05T17:39:01.615Z,25.40
2018-06-05T17:41:33.228Z,25.40
2018-06-05T17:44:05.333Z,25.30
2018-06-05T17:46:37.181Z,25.20
2018-06-05T17:49:08.858Z,25.10
2018-06-05T17:51:40.594Z,25.00
2018-06-05T17:54:12.268Z,25.00
2018-06-05T17:56:43.869Z,24.80
2018-06-05T17:59:15.402Z,24.80
2018-06-05T18:01:47.185Z,24.80
2018-06-05T18:04:18.692Z,24.70
2018-06-05T18:06:50.493Z,24.70
2018-06-05T18:09:21.997Z,24.60
2018-06-05T18:11:53.726Z,24.50
2018-06-05T18:14:25.433Z,24.50
2018-06-05T18:16:57.105Z,24.40
2018-06-05T18:19:28.651Z,24.30
2018-06-05T18:22:00.243Z,24.30
2018-06-05T18:24:31.857Z,24.20
2018-06-05T18:27:03.533Z,24.10
2018-06-05T18:32:06.337Z,24.00
2018-06-05T18:34:37.865Z,23.90
2018-06-05T18:37:09.532Z,23.80
2018-06-05T18:39:41.292Z,23.70
2018-06-05T18:42:12.902Z,23.70
2018-06-05T18:44:44.604Z,23.60
2018-06-05T18:47:16.274Z,23.50
2018-06-05T18:49:47.776Z,23.40
2018-06-05T18:52:19.539Z,23.30
2018-06-05T18:54:51.127Z,23.30
2018-06-05T18:57:23.009Z,23.20
2018-06-05T18:59:54.627Z,23.20
2018-06-05T19:02:26.377Z,23.10
2018-06-05T19:04:58.029Z,23.00
2018-06-05T19:07:29.629Z,23.00
2018-06-05T19:10:01.272Z,22.90
2018-06-05T19:12:32.868Z,22.90
2018-06-05T19:15:04.357Z,22.70
2018-06-05T19:17:35.979Z,22.70
2018-06-05T19:20:07.666Z,22.60
2018-06-05T19:22:39.304Z,22.60
2018-06-05T19:25:11.005Z,22.50
2018-06-05T19:27:42.599Z,22.50
2018-06-05T19:30:14.391Z,22.40
2018-06-05T19:32:45.984Z,22.40
2018-06-05T19:35:17.600Z,22.30
2018-06-05T19:37:49.285Z,22.30
2018-06-05T19:40:21.014Z,22.20
2018-06-05T19:42:52.705Z,22.10
2018-06-05T19:45:24.429Z,21.90
2018-06-05T19:47:56.137Z,21.80
2018-06-05T19:50:27.669Z,21.80
2018-06-05T19:52:59.446Z,21.70
2018-06-05T19:55:30.978Z,21.60
2018-06-05T19:58:02.452Z,21.50
2018-06-05T20:00:34.061Z,21.40
2018-06-05T20:03:05.915Z,21.40
2018-06-05T20:05:37.670Z,21.30
2018-06-05T20:08:09.184Z,21.30
2018-06-05T20:10:40.927Z,21.20
2018-06-05T20:13:12.520Z,21.20
2018-06-05T20:15:44.317Z,21.10
2018-06-05T20:18:15.820Z,21.10
2018-06-05T20:20:47.533Z,21.10
2018-06-05T20:23:19.145Z,21.00
2018-06-05T20:25:50.830Z,20.90
2018-06-05T20:28:22.417Z,20.90
2018-06-05T20:30:54.040Z,20.90
2018-06-05T20:33:25.664Z,20.80
2018-06-05T20:35:57.404Z,20.90
2018-06-05T20:38:28.969Z,20.80
2018-06-05T20:41:00.573Z,20.80
2018-06-05T20:43:32.355Z,20.80
2018-06-05T20:46:04.322Z,20.80
2018-06-05T20:48:36.020Z,20.70
2018-06-05T20:51:07.704Z,20.60
2018-06-05T20:53:39.334Z,20.60
2018-06-05T20:56:11.046Z,20.50
2018-06-05T20:58:42.650Z,20.50
2018-06-05T21:01:14.224Z,20.50
2018-06-05T21:03:45.932Z,20.40
2018-06-05T21:06:17.626Z,20.30
2018-06-05T21:08:49.345Z,20.20
2018-06-05T21:11:20.987Z,20.20
2018-06-05T21:16:23.653Z,20.00
2018-06-05T21:18:55.273Z,19.90
2018-06-05T21:21:27.018Z,19.80
2018-06-05T21:23:58.594Z,19.80
2018-06-05T21:26:30.168Z,19.80
2018-06-05T21:29:01.832Z,19.70
2018-06-05T21:31:33.495Z,19.70
2018-06-05T21:34:05.279Z,19.70
2018-06-05T21:36:36.904Z,19.60
2018-06-05T21:39:10.588Z,19.50
2018-06-05T21:41:42.189Z,19.50
2018-06-05T21:44:13.905Z,19.40
2018-06-05T21:46:45.657Z,19.30
2018-06-05T21:49:17.316Z,19.20
2018-06-05T21:51:48.925Z,19.20
2018-06-05T21:54:20.653Z,19.10
2018-06-05T21:56:52.237Z,19.10
2018-06-05T21:59:23.891Z,19.00
2018-06-05T22:01:55.529Z,18.90
2018-06-05T22:04:27.105Z,18.90
2018-06-05T22:06:58.737Z,18.80
2018-06-05T22:09:30.358Z,18.70
2018-06-05T22:12:01.942Z,18.70
2018-06-05T22:14:33.565Z,18.70
2018-06-05T22:17:05.153Z,18.70
2018-06-05T22:19:36.855Z,18.70
2018-06-05T22:22:08.564Z,18.70
2018-06-05T22:24:40.189Z,18.70
2018-06-05T22:27:12.011Z,18.70
2018-06-05T22:29:43.678Z,18.70
2018-06-05T22:32:15.183Z,18.70
2018-06-05T22:34:46.889Z,18.70
2018-06-05T22:37:18.553Z,18.60
2018-06-05T22:39:50.121Z,18.50
2018-06-05T22:42:21.820Z,18.50
2018-06-05T22:44:53.523Z,18.40
2018-06-05T22:47:25.272Z,18.30
2018-06-05T22:49:57.160Z,18.20
2018-06-05T22:52:28.988Z,18.20
2018-06-05T22:55:00.673Z,18.10
2018-06-05T22:57:32.401Z,18.00
2018-06-05T23:02:35.050Z,17.90
2018-06-05T23:05:06.876Z,17.90
2018-06-05T23:07:38.581Z,17.90
2018-06-05T23:10:10.289Z,17.80
2018-06-05T23:12:41.954Z,17.70
2018-06-05T23:15:13.625Z,17.70
2018-06-05T23:17:45.257Z,17.60
2018-06-05T23:20:16.965Z,17.60
2018-06-05T23:22:48.674Z,17.60
2018-06-05T23:25:20.437Z,17.60
2018-06-05T23:27:52.083Z,17.60
2018-06-05T23:30:23.753Z,17.60
2018-06-05T23:32:55.423Z,17.70
2018-06-05T23:35:27.469Z,17.70
2018-06-05T23:37:59.016Z,17.80
2018-06-05T23:40:30.770Z,17.80
2018-06-05T23:43:02.376Z,17.90
2018-06-05T23:45:34.194Z,17.90
2018-06-05T23:48:05.740Z,17.90
2018-06-05T23:50:37.438Z,18.00
2018-06-05T23:53:09.169Z,17.90
2018-06-05T23:55:40.850Z,18.00
2018-06-05T23:58:12.637Z,18.00
